Time;durP1;ratioP1;P1;durP2;ratioP2;P2;SDS_P1;SDS_P2;PMS_P1;PMS_P2;Temp;Humidity;BMP_temperature;BMP_pressure;BME280_temperature;BME280_humidity;BME280_pressure;Samples;Min_cycle;Max_cycle;Signal;HPM_P1;HPM_P2
2021/03/09 00:01:28;;;;;;;1999.90;999.90;;;5.20;99.90;;;;;;6248666;23;20020;-94
2021/03/09 00:03:56;;;;;;;1999.90;999.90;;;5.20;99.90;;;;;;6248304;23;20078;-93
2021/03/09 00:06:23;;;;;;;1999.90;999.90;;;5.20;99.90;;;;;;6248671;23;20031;-95
2021/03/09 00:08:50;;;;;;;1999.90;999.90;;;5.20;99.90;;;;;;6249519;23;20034;-95
2021/03/09 00:11:18;;;;;;;1999.90;999.90;;;5.20;99.90;;;;;;6248832;23;20448;-94
2021/03/09 00:13:45;;;;;;;1999.90;999.90;;;5.20;99.90;;;;;;6247842;23;20021;-95
2021/03/09 00:16:13;;;;;;;1999.90;999.90;;;5.10;99.90;;;;;;6248634;23;20028;-94
2021/03/09 00:18:41;;;;;;;1999.90;999.90;;;5.20;99.90;;;;;;6248356;23;20023;-94
2021/03/09 00:21:08;;;;;;;1999.90;999.90;;;5.20;99.90;;;;;;6248789;23;20031;-95
2021/03/09 00:23:36;;;;;;;1999.90;999.90;;;5.20;99.90;;;;;;6248682;23;20071;-94
2021/03/09 00:26:06;;;;;;;1999.90;999.90;;;5.20;99.90;;;;;;6248116;23;20507;-94
2021/03/09 00:28:33;;;;;;;1999.90;999.90;;;5.20;99.90;;;;;;6247787;23;20095;-94
2021/03/09 00:31:01;;;;;;;1999.90;999.90;;;5.20;99.90;;;;;;6248694;23;20036;-95
2021/03/09 00:33:31;;;;;;;1999.90;999.90;;;5.20;99.90;;;;;;6248253;23;20024;-95
2021/03/09 00:35:59;;;;;;;1999.90;999.90;;;5.20;99.90;;;;;;6248790;23;20423;-94
2021/03/09 00:38:26;;;;;;;1999.90;999.90;;;5.20;99.90;;;;;;6248669;23;20023;-94
2021/03/09 00:40:54;;;;;;;1999.90;999.90;;;5.20;99.90;;;;;;6248311;23;20020;-95
2021/03/09 00:43:21;;;;;;;1999.90;999.90;;;5.20;99.90;;;;;;6248146;23;20024;-94
2021/03/09 00:45:49;;;;;;;1999.90;999.90;;;5.20;99.90;;;;;;6247738;23;20024;-94
2021/03/09 00:48:18;;;;;;;1999.90;999.90;;;5.20;99.90;;;;;;6248315;23;20091;-94
2021/03/09 00:50:46;;;;;;;1999.90;999.90;;;5.20;99.90;;;;;;6249047;23;20412;-94
2021/03/09 00:53:13;;;;;;;1999.90;999.90;;;5.10;99.90;;;;;;6248383;23;20020;-94
2021/03/09 00:55:41;;;;;;;1999.90;999.90;;;5.20;99.90;;;;;;6248273;23;20024;-95
2021/03/09 00:58:08;;;;;;;1999.90;999.90;;;5.20;99.90;;;;;;6248134;23;20028;-94
2021/03/09 01:00:35;;;;;;;1999.90;999.90;;;5.20;99.90;;;;;;6236409;23;20370;-95
2021/03/09 01:03:24;;;;;;;1999.90;999.90;;;5.10;99.90;;;;;;6248296;23;20024;-94
2021/03/09 01:05:56;;;;;;;1999.90;999.90;;;5.10;99.90;;;;;;6240452;23;20378;-94
2021/03/09 01:08:26;;;;;;;1999.90;999.90;;;5.20;99.90;;;;;;6248200;23;20024;-94
2021/03/09 01:10:56;;;;;;;1999.90;999.90;;;5.10;99.90;;;;;;6247726;23;20031;-94
2021/03/09 01:13:24;;;;;;;1999.90;999.90;;;5.20;99.90;;;;;;6248006;23;20082;-95
2021/03/09 01:15:51;;;;;;;1999.90;999.90;;;5.20;99.90;;;;;;6248251;23;20024;-95
2021/03/09 01:18:21;;;;;;;1999.90;999.90;;;5.20;99.90;;;;;;6247259;23;20020;-95
2021/03/09 01:20:48;;;;;;;1999.90;999.90;;;5.20;99.90;;;;;;6248149;23;20020;-95
2021/03/09 01:23:17;;;;;;;1999.90;999.90;;;5.20;99.90;;;;;;6248090;23;20031;-94
2021/03/09 01:25:44;;;;;;;1999.90;999.90;;;5.20;99.90;;;;;;6248321;23;20020;-96
2021/03/09 01:28:12;;;;;;;1999.90;999.90;;;5.30;99.90;;;;;;6248664;23;20024;-95
2021/03/09 01:30:39;;;;;;;1999.90;999.90;;;5.30;99.90;;;;;;6247969;23;20024;-95
2021/03/09 01:33:09;;;;;;;1999.90;999.90;;;5.30;99.90;;;;;;6248416;23;20031;-95
2021/03/09 01:35:37;;;;;;;1999.90;999.90;;;5.30;99.90;;;;;;6247850;23;20024;-95
2021/03/09 01:38:05;;;;;;;1999.90;999.90;;;5.30;99.90;;;;;;6247534;23;20042;-95
2021/03/09 01:40:34;;;;;;;1999.90;999.90;;;5.30;99.90;;;;;;6248307;23;20020;-95
2021/03/09 01:43:02;;;;;;;1999.90;999.90;;;5.30;99.90;;;;;;6248354;23;20436;-95
2021/03/09 01:45:30;;;;;;;1999.90;999.90;;;5.30;99.90;;;;;;6248171;23;20031;-95
2021/03/09 01:47:59;;;;;;;1999.90;999.90;;;5.30;99.90;;;;;;6248367;23;20481;-94
2021/03/09 01:50:28;;;;;;;1999.90;999.90;;;5.30;99.90;;;;;;6249822;23;20072;-94
2021/03/09 01:52:55;;;;;;;1999.90;999.90;;;5.30;99.90;;;;;;6250016;23;20031;-94
2021/03/09 01:55:23;;;;;;;1999.90;999.90;;;5.30;99.90;;;;;;6252860;23;20059;-94
2021/03/09 01:57:52;;;;;;;1999.90;999.90;;;5.30;99.90;;;;;;6252597;23;20086;-94
2021/03/09 02:00:21;;;;;;;1999.90;999.90;;;5.30;99.90;;;;;;6251971;23;20348;-94
2021/03/09 02:03:02;;;;;;;1999.90;999.90;;;5.30;99.90;;;;;;6249419;23;20027;-95
2021/03/09 02:05:31;;;;;;;1999.90;999.90;;;5.30;99.90;;;;;;6247406;23;20495;-95
2021/03/09 02:07:59;;;;;;;1999.90;999.90;;;5.30;99.90;;;;;;6247915;23;20020;-95
2021/03/09 02:10:27;;;;;;;1999.90;999.90;;;5.30;99.90;;;;;;6248285;23;20023;-96
2021/03/09 02:13:33;;;;;;;1999.90;999.90;;;5.30;99.90;;;;;;6246964;23;20070;-94
2021/03/09 02:16:05;;;;;;;1999.90;999.90;;;5.30;99.90;;;;;;6233993;23;20062;-96
2021/03/09 02:18:41;;;;;;;1999.90;999.90;;;5.40;99.90;;;;;;6248385;23;20078;-95
2021/03/09 02:21:37;;;;;;;1999.90;999.90;;;5.40;99.90;;;;;;6247910;23;20074;-96
2021/03/09 02:24:49;;;;;;;1999.90;999.90;;;5.40;99.90;;;;;;6247020;23;20031;-95
2021/03/09 02:27:34;;;;;;;1999.90;999.90;;;5.40;99.90;;;;;;6155447;23;20517;-95
2021/03/09 02:30:22;;;;;;;1999.90;999.90;;;5.30;99.90;;;;;;6247459;23;20032;-95
2021/03/09 02:33:14;;;;;;;1999.90;999.90;;;5.40;99.90;;;;;;6248367;23;20031;-95
2021/03/09 02:35:47;;;;;;;1999.90;999.90;;;5.40;99.90;;;;;;6247521;23;20099;-95
2021/03/09 02:38:18;;;;;;;1999.90;999.90;;;5.30;99.90;;;;;;6248955;23;20387;-95
2021/03/09 02:40:46;;;;;;;1999.90;999.90;;;5.30;99.90;;;;;;6249653;23;20016;-94
2021/03/09 02:43:19;;;;;;;1999.90;999.90;;;5.30;99.90;;;;;;6249639;23;20030;-94
2021/03/09 02:45:50;;;;;;;1999.90;999.90;;;5.50;99.90;;;;;;6249603;23;20055;-95
2021/03/09 02:48:21;;;;;;;1999.90;999.90;;;5.50;99.90;;;;;;6250176;23;20293;-95
2021/03/09 02:50:54;;;;;;;1999.90;999.90;;;5.40;99.90;;;;;;6252576;23;20017;-94
2021/03/09 02:53:26;;;;;;;1999.90;999.90;;;5.50;99.90;;;;;;6249843;23;20103;-95
2021/03/09 02:55:55;;;;;;;1999.90;999.90;;;5.40;99.90;;;;;;6249861;23;20026;-95
2021/03/09 02:58:25;;;;;;;1999.90;999.90;;;5.40;99.90;;;;;;6249423;23;20094;-95
2021/03/09 03:00:55;;;;;;;1999.90;999.90;;;5.40;99.90;;;;;;6250999;23;20083;-96
2021/03/09 03:03:24;;;;;;;1999.90;999.90;;;5.40;99.90;;;;;;6250469;23;20032;-96
2021/03/09 03:05:52;;;;;;;1999.90;999.90;;;5.50;99.90;;;;;;6249756;23;20054;-95
2021/03/09 03:08:19;;;;;;;1999.90;999.90;;;5.50;99.90;;;;;;6248738;23;20028;-95
2021/03/09 03:10:47;;;;;;;1999.90;999.90;;;5.50;99.90;;;;;;6249229;23;20367;-94
2021/03/09 03:13:16;;;;;;;1999.90;999.90;;;5.50;99.90;;;;;;6249680;23;20024;-95
2021/03/09 03:15:43;;;;;;;1999.90;999.90;;;5.50;99.90;;;;;;6250095;23;20059;-94
2021/03/09 03:18:14;;;;;;;1999.90;999.90;;;5.50;99.90;;;;;;6249174;23;20336;-94
2021/03/09 03:20:43;;;;;;;1999.90;999.90;;;5.50;99.90;;;;;;6249341;23;20380;-95
2021/03/09 03:23:12;;;;;;;1999.90;999.90;;;5.60;99.90;;;;;;6249896;23;20082;-95
2021/03/09 03:25:39;;;;;;;1999.90;999.90;;;5.60;99.90;;;;;;6249097;23;20021;-96
2021/03/09 03:28:08;;;;;;;1999.90;999.90;;;5.60;99.90;;;;;;6248799;23;20024;-95
2021/03/09 03:30:36;;;;;;;1999.90;999.90;;;5.60;99.90;;;;;;6249372;23;20020;-95
2021/03/09 03:33:04;;;;;;;1999.90;999.90;;;5.60;99.90;;;;;;6248570;23;20020;-95
2021/03/09 03:35:34;;;;;;;1999.90;999.90;;;5.60;99.90;;;;;;6248953;23;20024;-95
2021/03/09 03:38:01;;;;;;;1999.90;999.90;;;5.60;99.90;;;;;;6248762;23;20024;-95
2021/03/09 03:40:29;;;;;;;1999.90;999.90;;;5.70;99.90;;;;;;6249631;23;20024;-96
2021/03/09 03:42:57;;;;;;;1999.90;999.90;;;5.60;99.90;;;;;;6249009;23;20074;-95
2021/03/09 03:45:26;;;;;;;1999.90;999.90;;;5.60;99.90;;;;;;6248613;23;20020;-95
2021/03/09 03:47:56;;;;;;;1999.90;999.90;;;5.70;99.90;;;;;;6248992;23;20432;-95
2021/03/09 03:50:35;;;;;;;1999.90;999.90;;;5.60;99.90;;;;;;6248600;23;20028;-95
2021/03/09 03:53:14;;;;;;;1999.90;999.90;;;5.60;99.90;;;;;;6249208;23;20020;-95
2021/03/09 03:55:55;;;;;;;1999.90;999.90;;;5.60;99.90;;;;;;6248903;23;20032;-94
2021/03/09 03:58:27;;;;;;;1999.90;999.90;;;5.60;99.90;;;;;;6248906;23;20024;-95
2021/03/09 04:00:56;;;;;;;1999.90;999.90;;;5.60;99.90;;;;;;6249525;23;20420;-95
2021/03/09 04:03:24;;;;;;;1999.90;999.90;;;5.60;99.90;;;;;;6247957;23;20078;-95
2021/03/09 04:05:53;;;;;;;1999.90;999.90;;;5.60;99.90;;;;;;6249050;23;20028;-95
2021/03/09 04:08:22;;;;;;;1999.90;999.90;;;5.60;99.90;;;;;;6249532;23;20416;-95
2021/03/09 04:10:51;;;;;;;1999.90;999.90;;;5.60;99.90;;;;;;6248811;23;20074;-95
2021/03/09 04:13:19;;;;;;;1999.90;999.90;;;5.70;99.90;;;;;;6248713;23;20024;-96
2021/03/09 04:15:47;;;;;;;1999.90;999.90;;;5.70;99.90;;;;;;6249142;23;20023;-96
2021/03/09 04:18:17;;;;;;;1999.90;999.90;;;5.70;99.90;;;;;;6248379;23;20055;-95
2021/03/09 04:20:45;;;;;;;1999.90;999.90;;;5.70;99.90;;;;;;6248433;23;20367;-96
2021/03/09 04:23:16;;;;;;;1999.90;999.90;;;5.70;99.90;;;;;;6249116;23;20020;-96
2021/03/09 04:25:44;;;;;;;1999.90;999.90;;;5.70;99.90;;;;;;6249040;23;20021;-95
2021/03/09 04:28:12;;;;;;;1999.90;999.90;;;5.70;99.90;;;;;;6248265;23;20103;-95
2021/03/09 04:30:41;;;;;;;1999.90;999.90;;;5.70;99.90;;;;;;6248027;23;20016;-96
2021/03/09 04:33:09;;;;;;;1999.90;999.90;;;5.70;99.90;;;;;;6248224;23;20384;-96
2021/03/09 04:35:37;;;;;;;1999.90;999.90;;;5.70;99.90;;;;;;6248368;23;20448;-95
2021/03/09 04:38:05;;;;;;;1999.90;999.90;;;5.70;99.90;;;;;;6248647;23;20099;-96
2021/03/09 04:40:35;;;;;;;1999.90;999.90;;;5.70;99.90;;;;;;6248803;23;20020;-95
2021/03/09 04:43:07;;;;;;;1999.90;999.90;;;5.80;99.90;;;;;;6247764;23;20028;-95
2021/03/09 04:45:42;;;;;;;1999.90;999.90;;;5.80;99.90;;;;;;6248401;23;20020;-95
2021/03/09 04:48:10;;;;;;;1999.90;999.90;;;5.80;99.90;;;;;;6248238;23;20340;-95
2021/03/09 04:51:03;;;;;;;1999.90;999.90;;;5.70;99.90;;;;;;6247772;23;20020;-95
2021/03/09 04:53:31;;;;;;;1999.90;999.90;;;5.80;99.90;;;;;;6248165;23;20053;-96
2021/03/09 04:56:00;;;;;;;1999.90;999.90;;;5.80;99.90;;;;;;6248087;23;20082;-94
2021/03/09 04:58:28;;;;;;;1999.90;999.90;;;5.80;99.90;;;;;;6248530;23;20024;-95
2021/03/09 05:00:55;;;;;;;1999.90;999.90;;;5.80;99.90;;;;;;6247990;23;20016;-96
2021/03/09 05:03:23;;;;;;;1999.90;999.90;;;5.80;99.90;;;;;;6248783;23;20078;-95
2021/03/09 05:05:52;;;;;;;1999.90;999.90;;;5.80;99.90;;;;;;6249419;23;20358;-96
2021/03/09 05:08:20;;;;;;;1999.90;999.90;;;5.80;99.90;;;;;;6247987;23;20024;-95
2021/03/09 05:10:48;;;;;;;1999.90;999.90;;;5.80;99.90;;;;;;6248404;23;20020;-96
2021/03/09 05:13:17;;;;;;;1999.90;999.90;;;5.80;99.90;;;;;;6247365;23;20055;-96
2021/03/09 05:15:44;;;;;;;1999.90;999.90;;;5.90;99.90;;;;;;6247799;23;20043;-96
2021/03/09 05:18:12;;;;;;;1999.90;999.90;;;5.90;99.90;;;;;;6247921;23;20270;-96
2021/03/09 05:20:40;;;;;;;1999.90;999.90;;;5.90;99.90;;;;;;6247690;23;20016;-96
2021/03/09 05:23:07;;;;;;;1999.90;999.90;;;5.90;99.90;;;;;;6247779;23;20024;-96
2021/03/09 05:25:35;;;;;;;1999.90;999.90;;;5.90;99.90;;;;;;6236536;23;20111;-95
2021/03/09 05:28:28;;;;;;;1999.90;999.90;;;5.90;99.90;;;;;;6247930;23;20055;-95
2021/03/09 05:30:56;;;;;;;1999.90;999.90;;;5.90;99.90;;;;;;6230748;23;20020;-95
2021/03/09 05:33:24;;;;;;;1999.90;999.90;;;6.00;99.90;;;;;;6247200;23;20020;-95
2021/03/09 05:35:51;;;;;;;1999.90;999.90;;;6.00;99.90;;;;;;6247725;23;20024;-96
2021/03/09 05:38:19;;;;;;;1999.90;999.90;;;6.00;99.90;;;;;;6248271;23;20074;-96
2021/03/09 05:40:46;;;;;;;1999.90;999.90;;;6.00;99.90;;;;;;6247661;23;20016;-95
2021/03/09 05:43:56;;;;;;;1999.90;999.90;;;6.10;99.90;;;;;;6248225;23;20024;-96
2021/03/09 05:46:49;;;;;;;1999.90;999.90;;;6.10;99.90;;;;;;6243755;23;20020;-95
2021/03/09 05:49:17;;;;;;;1999.90;999.90;;;6.10;99.90;;;;;;6249122;23;20020;-96
2021/03/09 05:51:50;;;;;;;1999.90;999.90;;;6.10;99.90;;;;;;6247524;23;20059;-95
2021/03/09 05:54:18;;;;;;;1999.90;999.90;;;6.10;99.90;;;;;;6247963;23;20051;-95
2021/03/09 05:56:45;;;;;;;1999.90;999.90;;;6.10;99.90;;;;;;6248424;23;20024;-96
2021/03/09 05:59:13;;;;;;;1999.90;999.90;;;6.20;99.90;;;;;;6247568;23;20126;-95
2021/03/09 06:01:40;;;;;;;1999.90;999.90;;;6.20;99.90;;;;;;6247286;23;20028;-96
2021/03/09 06:04:09;;;;;;;1999.90;999.90;;;6.20;99.90;;;;;;6247337;23;20078;-95
2021/03/09 06:06:37;;;;;;;1999.90;999.90;;;6.20;99.90;;;;;;6247703;23;20095;-96
2021/03/09 06:09:36;;;;;;;1999.90;999.90;;;6.20;99.90;;;;;;6248098;23;20027;-96
2021/03/09 06:12:16;;;;;;;1999.90;999.90;;;6.20;99.90;;;;;;6247684;23;20095;-96
2021/03/09 06:14:46;;;;;;;1999.90;999.90;;;6.20;99.90;;;;;;6247402;23;20024;-96
2021/03/09 06:17:23;;;;;;;1999.90;999.90;;;6.20;99.90;;;;;;6248658;23;20092;-95
2021/03/09 06:20:23;;;;;;;1999.90;999.90;;;6.20;99.90;;;;;;6248064;23;20016;-96
2021/03/09 06:23:29;;;;;;;1999.90;999.90;;;6.20;99.90;;;;;;6248359;23;20020;-95
2021/03/09 06:26:01;;;;;;;1999.90;999.90;;;6.20;99.90;;;;;;6247186;23;20451;-96
2021/03/09 06:28:33;;;;;;;1999.90;999.90;;;6.20;99.90;;;;;;6254637;23;20036;-96
2021/03/09 06:31:13;;;;;;;1999.90;999.90;;;6.20;99.90;;;;;;6255083;23;20076;-95
2021/03/09 06:33:41;;;;;;;1999.90;999.90;;;6.20;99.90;;;;;;6254989;23;20074;-95
2021/03/09 06:36:13;;;;;;;1999.90;999.90;;;6.20;99.90;;;;;;6250257;23;20024;-96
2021/03/09 06:39:11;;;;;;;1999.90;999.90;;;6.20;99.90;;;;;;6234898;23;20094;-95
2021/03/09 06:41:40;;;;;;;1999.90;999.90;;;6.20;99.90;;;;;;6252608;23;20051;-96
2021/03/09 06:44:07;;;;;;;1999.90;999.90;;;6.20;99.90;;;;;;6251300;23;20020;-96
2021/03/09 06:46:45;;;;;;;1999.90;999.90;;;6.20;99.90;;;;;;6242262;23;20023;-95
2021/03/09 06:49:13;;;;;;;1999.90;999.90;;;6.20;99.90;;;;;;6252576;23;20028;-95
2021/03/09 06:51:40;;;;;;;1999.90;999.90;;;6.20;99.90;;;;;;6256547;23;20353;-96
2021/03/09 06:54:09;;;;;;;1999.90;999.90;;;6.20;99.90;;;;;;6260574;23;20031;-94
2021/03/09 06:56:39;;;;;;;1999.90;999.90;;;6.20;99.90;;;;;;6259867;22;20103;-96
2021/03/09 06:59:21;;;;;;;1999.90;999.90;;;6.20;99.90;;;;;;6254111;23;20347;-95
2021/03/09 07:02:10;;;;;;;1999.90;999.90;;;6.20;99.90;;;;;;6251250;23;20036;-96
2021/03/09 07:04:39;;;;;;;1999.90;999.90;;;6.20;99.90;;;;;;6233682;23;20040;-96
2021/03/09 07:07:08;;;;;;;1999.90;999.90;;;6.20;99.90;;;;;;6250469;23;20444;-96
2021/03/09 07:09:39;;;;;;;1999.90;999.90;;;6.20;99.90;;;;;;6249788;23;20023;-96
2021/03/09 07:12:10;;;;;;;1999.90;999.90;;;6.20;99.90;;;;;;6248465;23;20519;-96
2021/03/09 07:14:41;;;;;;;1999.90;999.90;;;6.20;99.90;;;;;;6249588;23;20026;-95
2021/03/09 07:17:09;;;;;;;1999.90;999.90;;;6.20;99.90;;;;;;6248512;23;20038;-96
2021/03/09 07:19:40;;;;;;;1999.90;999.90;;;6.30;99.90;;;;;;6249191;23;20451;-96
2021/03/09 07:22:11;;;;;;;1999.90;999.90;;;6.30;99.90;;;;;;6248229;23;20055;-96
2021/03/09 07:24:43;;;;;;;1999.90;999.90;;;6.30;99.90;;;;;;6249979;23;20024;-96
2021/03/09 07:27:17;;;;;;;1999.90;999.90;;;6.20;99.90;;;;;;6249618;23;20387;-95
2021/03/09 07:29:53;;;;;;;1999.90;999.90;;;6.30;99.90;;;;;;6251340;23;20159;-96
2021/03/09 07:32:22;;;;;;;1999.90;999.90;;;6.30;99.90;;;;;;6249982;23;20070;-96
2021/03/09 07:34:50;;;;;;;1999.90;999.90;;;6.30;99.90;;;;;;6251787;23;20091;-95
2021/03/09 07:37:56;;;;;;;1999.90;999.90;;;6.30;99.90;;;;;;6250244;23;20024;-96
2021/03/09 07:40:36;;;;;;;1999.90;999.90;;;6.30;99.90;;;;;;6255062;23;20027;-96
2021/03/09 07:43:05;;;;;;;1999.90;999.90;;;6.20;99.90;;;;;;6250534;23;20020;-95
2021/03/09 07:45:35;;;;;;;1999.90;999.90;;;6.30;99.90;;;;;;6238255;23;20463;-95
2021/03/09 07:48:04;;;;;;;1999.90;999.90;;;6.20;99.90;;;;;;6250380;23;20024;-95
2021/03/09 07:51:00;;;;;;;1999.90;999.90;;;6.30;99.90;;;;;;6253172;23;20424;-96
2021/03/09 07:54:06;;;;;;;1999.90;999.90;;;6.30;99.90;;;;;;6262027;23;20024;-96
2021/03/09 07:56:36;;;;;;;1999.90;999.90;;;6.30;99.90;;;;;;6201486;23;20055;-96
2021/03/09 07:59:11;;;;;;;1999.90;999.90;;;6.30;99.90;;;;;;6250791;23;20031;-95
2021/03/09 08:01:44;;;;;;;;;;;6.30;99.90;;;;;;6249750;23;20043;-96
2021/03/09 08:04:11;;;;;;;1999.90;999.90;;;6.30;99.90;;;;;;6251030;23;19915;-96
2021/03/09 08:07:01;;;;;;;1999.90;999.90;;;6.30;99.90;;;;;;6262710;23;20039;-96
2021/03/09 08:13:34;;;;;;;1999.90;999.90;;;6.40;99.90;;;;;;6248124;22;20055;-96
2021/03/09 08:16:54;;;;;;;1999.90;999.90;;;6.50;99.90;;;;;;6240368;23;20058;-95
2021/03/09 08:23:02;;;;;;;1999.90;999.90;;;6.50;99.90;;;;;;6187973;23;20024;-96
2021/03/09 08:26:03;;;;;;;1999.90;999.90;;;6.60;99.90;;;;;;6255691;23;20024;-96
2021/03/09 08:40:26;;;;;;;1999.90;999.90;;;6.70;99.90;;;;;;6168488;23;20040;-96
2021/03/09 08:43:21;;;;;;;1999.90;999.90;;;6.70;99.90;;;;;;6166714;23;20021;-96
2021/03/09 08:58:44;;;;;;;1999.90;999.90;;;6.90;99.90;;;;;;6193737;23;20021;-96
2021/03/09 09:01:42;;;;;;;1999.90;999.90;;;6.90;99.90;;;;;;6225847;23;20111;-95
2021/03/09 09:04:56;;;;;;;1999.90;999.90;;;6.90;99.90;;;;;;6224090;23;20028;-96
2021/03/09 09:07:35;;;;;;;1999.90;999.90;;;6.90;99.90;;;;;;6219121;23;20031;-96
2021/03/09 09:10:11;;;;;;;1999.90;999.90;;;6.90;99.90;;;;;;6229665;23;20027;-96
2021/03/09 09:12:45;;;;;;;1999.90;999.90;;;7.00;99.90;;;;;;6229011;23;20383;-96
2021/03/09 09:15:24;;;;;;;1999.90;999.90;;;7.00;99.90;;;;;;6235788;23;20080;-96
2021/03/09 09:33:23;;;;;;;1999.90;999.90;;;7.00;99.90;;;;;;6221493;23;20042;-96
2021/03/09 09:44:04;;;;;;;1999.90;999.90;;;7.00;99.90;;;;;;6247726;22;20109;-95
2021/03/09 10:16:36;;;;;;;1999.90;999.90;;;7.00;99.90;;;;;;6082719;23;20037;-96
2021/03/09 10:22:30;;;;;;;1999.90;999.90;;;7.10;99.90;;;;;;6140348;23;20062;-95
2021/03/09 10:32:15;;;;;;;1999.90;999.90;;;7.20;99.90;;;;;;6246965;23;20021;-94
2021/03/09 10:34:54;;;;;;;1999.90;999.90;;;7.30;99.90;;;;;;6248514;23;20020;-95
2021/03/09 10:37:45;;;;;;;1999.90;999.90;;;7.30;99.90;;;;;;6249340;23;20024;-95
2021/03/09 10:40:42;;;;;;;1999.90;999.90;;;7.40;99.90;;;;;;6253643;23;20020;-94
2021/03/09 10:43:43;;;;;;;1999.90;999.90;;;7.40;99.90;;;;;;6251507;23;20031;-94
2021/03/09 10:46:18;;;;;;;1999.90;999.90;;;7.50;99.90;;;;;;6252385;23;20024;-94
2021/03/09 10:48:46;;;;;;;;;;;7.50;99.90;;;;;;6252773;23;20407;-93
2021/03/09 10:51:41;;;;;;;1999.90;999.90;;;7.50;99.90;;;;;;6253065;23;19915;-94
2021/03/09 11:02:06;;;;;;;1999.90;999.90;;;7.70;99.90;;;;;;6029271;23;20053;-95
2021/03/09 11:12:22;;;;;;;1999.90;999.90;;;7.70;99.90;;;;;;6028656;23;20079;-96
2021/03/09 11:26:41;;;;;;;1999.90;999.90;;;7.90;99.90;;;;;;5944830;24;20031;-96
2021/03/09 11:29:27;;;;;;;1999.90;999.90;;;8.00;99.90;;;;;;6092861;23;20073;-96
2021/03/09 11:32:17;;;;;;;;;;;;;;;;;;;;;
2021/03/09 11:45:48;;;;;;;1999.90;999.90;;;7.80;99.90;;;;;;6131914;23;20060;-95
2021/03/09 11:48:16;;;;;;;1999.90;999.90;;;7.80;99.90;;;;;;6131915;23;20032;-96
2021/03/09 11:50:44;;;;;;;1999.90;999.90;;;7.80;99.90;;;;;;6133440;23;20025;-96
2021/03/09 11:53:11;;;;;;;1999.90;999.90;;;7.90;99.90;;;;;;6222151;23;20029;-96
2021/03/09 11:55:51;;;;;;;1999.90;999.90;;;7.80;99.90;;;;;;6222638;23;20378;-95
2021/03/09 11:58:22;;;;;;;1999.90;999.90;;;7.90;99.90;;;;;;6220111;23;20020;-95
2021/03/09 12:01:08;;;;;;;1999.90;999.90;;;7.90;99.90;;;;;;6219966;23;20383;-95
2021/03/09 12:06:32;;;;;;;1999.90;999.90;;;7.80;99.90;;;;;;6222525;23;20024;-96
2021/03/09 12:09:10;;;;;;;1999.90;999.90;;;7.90;99.90;;;;;;6220642;23;20024;-95
2021/03/09 12:11:37;;;;;;;1999.90;999.90;;;7.90;99.90;;;;;;6219342;23;20082;-95
2021/03/09 12:18:49;;;;;;;1999.90;999.90;;;7.80;99.90;;;;;;6131284;23;20464;-95
2021/03/09 12:30:03;;;;;;;1999.90;999.90;;;7.80;99.90;;;;;;5990079;24;20061;-95
2021/03/09 12:32:32;;;;;;;1999.90;999.90;;;7.80;99.90;;;;;;6060837;23;20058;-95
2021/03/09 12:35:00;;;;;;;1999.90;999.90;;;7.80;99.90;;;;;;6195922;23;20021;-95
2021/03/09 12:37:30;;;;;;;1999.90;999.90;;;7.80;99.90;;;;;;6219155;23;20028;-95
2021/03/09 12:43:45;;;;;;;1999.90;999.90;;;7.80;99.90;;;;;;6249522;22;20063;-96
2021/03/09 12:46:12;;;;;;;1999.90;999.90;;;7.90;99.90;;;;;;6253082;23;20099;-96
2021/03/09 12:52:24;;;;;;;1999.90;999.90;;;7.90;99.90;;;;;;6180362;23;20031;-96
2021/03/09 12:54:52;;;;;;;1999.90;999.90;;;7.90;99.90;;;;;;6254688;23;20024;-96
2021/03/09 12:57:21;;;;;;;1999.90;999.90;;;7.90;99.90;;;;;;6262814;23;20051;-96
2021/03/09 12:59:48;;;;;;;1999.90;999.90;;;7.90;99.90;;;;;;6267726;23;20039;-95
2021/03/09 13:05:51;;;;;;;1999.90;999.90;;;7.90;99.90;;;;;;6165989;23;20073;-95
2021/03/09 13:08:19;;;;;;;1999.90;999.90;;;8.00;99.90;;;;;;6189811;23;20036;-95
2021/03/09 13:10:56;;;;;;;1999.90;999.90;;;8.00;99.90;;;;;;6189326;23;20113;-95
2021/03/09 13:52:39;;;;;;;1999.90;999.90;;;7.90;99.90;;;;;;6122079;23;20076;-96
2021/03/09 13:55:09;;;;;;;1999.90;999.90;;;8.00;99.90;;;;;;6218280;23;20437;-95
2021/03/09 13:58:07;;;;;;;1999.90;999.90;;;8.00;99.90;;;;;;6218960;23;20025;-96
2021/03/09 14:07:28;;;;;;;1999.90;999.90;;;8.00;99.90;;;;;;6223742;23;20166;-96
2021/03/09 14:10:12;;;;;;;1999.90;999.90;;;7.90;99.90;;;;;;6072768;23;20394;-96
2021/03/09 14:12:39;;;;;;;1999.90;999.90;;;7.90;99.90;;;;;;6068402;23;20123;-95
2021/03/09 14:15:09;;;;;;;1999.90;999.90;;;7.90;99.90;;;;;;6069457;23;20035;-95
2021/03/09 14:17:50;;;;;;;1999.90;999.90;;;7.80;99.90;;;;;;6072275;23;20635;-95
2021/03/09 14:20:18;;;;;;;1999.90;999.90;;;7.90;99.90;;;;;;6069638;23;20046;-94
2021/03/09 14:22:48;;;;;;;1999.90;999.90;;;7.80;99.90;;;;;;6073129;23;20027;-94
2021/03/09 14:25:19;;;;;;;1999.90;999.90;;;7.80;99.90;;;;;;6071134;23;20023;-95
2021/03/09 14:28:02;;;;;;;;;;;;;;;;;;;;;
2021/03/09 14:30:40;;;;;;;;;;;;;;;;;;;;;
2021/03/09 14:41:49;;;;;;;;;;;;;;;;;;;;;
2021/03/09 14:48:49;;;;;;;1999.90;999.90;;;7.80;99.90;;;;;;5974629;24;20107;-96
2021/03/09 14:51:37;;;;;;;1999.90;999.90;;;7.70;99.90;;;;;;6197510;23;20077;-96
2021/03/09 14:54:07;;;;;;;1999.90;999.90;;;7.70;99.90;;;;;;6251404;23;20020;-96
2021/03/09 15:00:42;;;;;;;1999.90;999.90;;;7.70;99.90;;;;;;6129601;23;20053;-95
2021/03/09 15:07:48;;;;;;;1999.90;999.90;;;7.70;99.90;;;;;;6090246;23;20057;-96
2021/03/09 15:10:41;;;;;;;1999.90;999.90;;;7.70;99.90;;;;;;6080085;23;20025;-96
2021/03/09 15:13:51;;;;;;;1999.90;999.90;;;7.80;99.90;;;;;;6134757;23;20022;-96
2021/03/09 15:28:18;;;;;;;1999.90;999.90;;;7.70;99.90;;;;;;6050232;23;20030;-96
2021/03/09 15:31:16;;;;;;;1999.90;999.90;;;7.50;99.90;;;;;;6159023;23;20460;-96
2021/03/09 15:33:55;;;;;;;1999.90;999.90;;;7.50;99.90;;;;;;6242702;23;20031;-96
2021/03/09 15:37:08;;;;;;;1999.90;999.90;;;7.50;99.90;;;;;;6208573;23;20048;-96
2021/03/09 15:43:35;;;;;;;1999.90;999.90;;;7.40;99.90;;;;;;6253715;23;20054;-96
2021/03/09 15:50:12;;;;;;;1999.90;999.90;;;7.30;99.90;;;;;;6249393;22;20105;-95
2021/03/09 15:52:40;;;;;;;1999.90;999.90;;;7.30;99.90;;;;;;6250740;23;20070;-95
2021/03/09 15:55:09;;;;;;;1999.90;999.90;;;7.30;99.90;;;;;;6251503;23;20024;-94
2021/03/09 15:57:37;;;;;;;1999.90;999.90;;;7.30;99.90;;;;;;6249867;23;20024;-94
2021/03/09 16:00:24;;;;;;;1999.90;999.90;;;7.30;99.90;;;;;;6249280;23;20031;-95
2021/03/09 16:02:57;;;;;;;1999.90;999.90;;;7.30;99.90;;;;;;6249564;23;20074;-95
2021/03/09 16:05:30;;;;;;;1999.90;999.90;;;7.20;99.90;;;;;;6249913;23;20066;-94
2021/03/09 16:08:12;;;;;;;1999.90;999.90;;;7.30;99.90;;;;;;6250509;23;20021;-95
2021/03/09 16:10:54;;;;;;;1999.90;999.90;;;7.30;99.90;;;;;;6249100;23;20027;-95
2021/03/09 16:13:29;;;;;;;1999.90;999.90;;;7.20;99.90;;;;;;6251556;23;20024;-96
2021/03/09 16:22:57;;;;;;;1999.90;999.90;;;7.20;99.90;;;;;;6240049;23;20027;-96
2021/03/09 16:25:26;;;;;;;1999.90;999.90;;;7.20;99.90;;;;;;6251012;23;20024;-95
2021/03/09 16:27:53;;;;;;;1999.90;999.90;;;7.10;99.90;;;;;;6251933;23;20031;-96
2021/03/09 16:30:23;;;;;;;1999.90;999.90;;;7.10;99.90;;;;;;6251185;23;20050;-95
2021/03/09 16:36:18;;;;;;;1999.90;999.90;;;7.10;99.90;;;;;;6252582;23;20020;-96
2021/03/09 16:38:59;;;;;;;1999.90;999.90;;;7.10;99.90;;;;;;6251023;23;20020;-95
2021/03/09 16:41:27;;;;;;;1999.90;999.90;;;7.10;99.90;;;;;;6249806;23;20054;-96
2021/03/09 16:43:54;;;;;;;1999.90;999.90;;;7.10;99.90;;;;;;6252000;23;20028;-94
2021/03/09 16:46:21;;;;;;;1999.90;999.90;;;7.10;99.90;;;;;;6250778;23;20024;-95
2021/03/09 16:48:49;;;;;;;1999.90;999.90;;;7.10;99.90;;;;;;6250404;23;20024;-95
2021/03/09 16:51:17;;;;;;;1999.90;999.90;;;7.10;99.90;;;;;;6252042;23;20043;-95
2021/03/09 16:57:18;;;;;;;1999.90;999.90;;;7.10;99.90;;;;;;6048212;23;20343;-96
2021/03/09 16:59:53;;;;;;;1999.90;999.90;;;7.00;99.90;;;;;;6248753;23;20442;-96
2021/03/09 17:02:20;;;;;;;1999.90;999.90;;;7.00;99.90;;;;;;6249708;23;20027;-96
2021/03/09 17:04:47;;;;;;;1999.90;999.90;;;7.00;99.90;;;;;;6249985;23;20408;-96
2021/03/09 17:07:16;;;;;;;1999.90;999.90;;;6.90;99.90;;;;;;6250650;23;20047;-96
2021/03/09 17:09:47;;;;;;;1999.90;999.90;;;7.00;99.90;;;;;;6250121;23;20020;-96